Whitby, United Kingdom
Current Conditions -  °F | °C
As of 8:50 PM on Tuesday 27 Jan 2015 (Local Time) from EGNV Reporting Station
Broken Clouds Broken Clouds  
Wind Chill: 37°   Ceiling: 2600
Heat Index: 43°   Visibility: 6mi
Dew Point: 36°   Wind: 12mph
Humidity: 76%   Direction: 210°SSW
Pressure: 29.97"   Gusts: NA
Location:  54.48°N, 0.64°W
Report Text: EGNV 272050Z 21010KT 9999 FEW023 BKN026 06/02 Q1015
Loading
Personal Weather Stations






























Interactive Weather Map New forecast layout! Learn more

10-Day Weather Forecast

Advertisements
Track Severe Weather on mobile